• Join FlightAware (Why Join?)
  • Login
  • US Flag 
02:18AM EST


 

Airport Tracker/Info


-or-


 

Live Flight TrackerFlight Track Log ✈ UAL4131 ✈ 08-May-2013 ✈ KMCI - KEWR

Flight Track Log - Related Links

Times and Time Zones

All times are in EDT time to prevent confusion due to time zone crossing. See the UAL4131 flight status page for this flight to view local times or setup timezone preferences in your user account.

Time Position Orientation Groundspeed Altitude Reporting Facility
EDT Latitude Longitude Course Direction KTS MPH feet Rate Location/Type
01:49PM 39.2833 -94.6833 80° East 163 188 1,400  Level Kansas City TRACON
01:50PM 39.2853 -94.6131 88° East 184 212 3,300 1,560 Climbing Kansas City Center
01:51PM 39.3156 -94.5378 63° Northeast 256 295 4,900 2,100 Climbing Kansas City Center
01:52PM 39.3269 -94.3755 80° East  Level FlightAware Approximate
01:52PM 39.3383 -94.4328 74° East 275 316 7,700  Level Kansas City Center
01:53PM 39.3447 -94.2454 80° East  Level FlightAware Approximate
01:53PM 39.3486 -94.3342 82° East 287 330 9,800  Level Kansas City Center
01:54PM 39.3624 -94.1152 80° East  Level FlightAware Approximate
01:54PM 39.3614 -94.2089 82° East 322 371 10,900  Level Kansas City Center
01:55PM 39.3725 -94.0847 83° East 361 415 12,300 1,440 Climbing Kansas City Center
01:56PM 39.3844 -93.9578 83° East 372 428 13,900 1,560 Climbing Kansas City Center
01:57PM 39.4039 -93.8086 80° East 377 434 15,600 1,320 Climbing Kansas City Center
01:58PM 39.4214 -93.6831 80° East 384 442 16,700 1,140 Climbing Kansas City Center
01:59PM 39.4417 -93.5131 81° East 402 463 18,000 1,200 Climbing Kansas City Center
02:00PM 39.4594 -93.3697 81° East 406 467 19,200 1,140 Climbing Kansas City Center
02:01PM 39.4761 -93.2250 81° East 409 471 20,400 1,140 Climbing Kansas City Center
02:03PM 39.4933 -93.0775 81° East 417 480 21,600 1,140 Climbing Kansas City Center
02:04PM 39.5097 -92.9272 82° East 424 488 22,800 1,140 Climbing Kansas City Center
02:05PM 39.5303 -92.7467 82° East 427 491 24,000 1,140 Climbing Kansas City Center
02:06PM 39.5481 -92.5986 81° East 425 489 25,200 1,140 Climbing Kansas City Center
02:07PM 39.5642 -92.4497 82° East 424 488 26,400 1,140 Climbing Kansas City Center
02:08PM 39.5808 -92.3019 82° East 421 484 27,600 1,260 Climbing Kansas City Center
02:09PM 39.6011 -92.1267 81° East 417 480 29,100 1,200 Climbing Kansas City Center
02:10PM 39.6161 -91.9819 82° East 415 478 30,200 960 Climbing Kansas City Center
02:11PM 39.6308 -91.8372 82° East 412 474 31,200 960 Climbing Kansas City Center
02:12PM 39.6467 -91.6900 82° East 414 476 32,200 960 Climbing Kansas City Center
02:13PM 39.6619 -91.5433 82° East 415 478 33,200 1,020 Climbing Kansas City Center
02:14PM 39.6792 -91.3692 83° East 412 474 34,400 840 Climbing Kansas City Center
02:15PM 39.6925 -91.2369 82° East 410 472 35,000 240 Climbing Kansas City Center
02:16PM 39.7075 -91.0892 82° East 411 473 35,000  Level Kansas City Center
02:17PM 39.7278 -90.8983 82° East 433 498 35,000  Level Kansas City Center
02:18PM 39.7433 -90.7314 83° East 453 521 35,000  Level Kansas City Center
02:19PM 39.7606 -90.5517 83° East 469 540 35,000  Level Kansas City Center
02:20PM 39.7764 -90.3825 83° East 474 545 35,000  Level Kansas City Center
02:21PM 39.7917 -90.2117 83° East 476 548 35,000  Level Kansas City Center
02:22PM 39.8078 -90.0408 83° East 478 550 35,000  Level Kansas City Center
02:23PM 39.8225 -89.8708 84° East 477 549 35,000  Level Kansas City Center
02:24PM 39.8378 -89.7019 83° East 475 547 35,000  Level Kansas City Center
02:25PM 39.8411 -89.4967 89° East 476 548 35,000  Level Kansas City Center
02:27PM 39.8417 -89.1517 90° East 478 550 35,000  Level Kansas City Center
02:28PM 39.8419 -88.9800 90° East 477 549 35,000  Level Kansas City Center
02:29PM 39.8417 -88.8081 90° East 478 550 35,000  Level Kansas City Center
02:30PM 39.8422 -88.6033 90° East 475 547 35,000  Level Kansas City Center
02:31PM 39.8414 -88.4353 90° East 471 542 35,000  Level Kansas City Center
02:32PM 39.8417 -88.2653 90° East 470 541 35,000  Level Kansas City Center
02:34PM 39.8397 -88.0828 91° East 466 536 35,000  Level Kansas City Center
02:34PM 39.8383 -88.0411 92° East 465 535 35,000  Level Indianapolis Center
02:35PM 39.8369 -87.8739 91° East 465 535 35,000  Level Indianapolis Center
02:36PM 39.8364 -87.7072 90° East 464 534 35,000  Level Indianapolis Center
02:37PM 39.8336 -87.5389 91° East 465 535 35,000  Level Indianapolis Center
02:38PM 39.8311 -87.3731 91° East 463 533 35,000  Level Indianapolis Center
02:39PM 39.8297 -87.2067 91° East 463 533 35,000  Level Indianapolis Center
02:40PM 39.8267 -87.0092 91° East 458 527 35,000  Level Indianapolis Center
02:41PM 39.8242 -86.8450 91° East 456 525 35,000  Level Indianapolis Center
02:42PM 39.8211 -86.6800 91° East 457 526 35,000  Level Indianapolis Center
02:43PM 39.8178 -86.5147 91° East 457 526 35,000  Level Indianapolis Center
02:44PM 39.8214 -86.3486 88° East 454 522 35,000  Level Indianapolis Center
02:45PM 39.8542 -86.1828 76° East 457 526 35,000  Level Indianapolis Center
02:46PM 39.8875 -86.0244 75° East 451 519 35,000  Level Indianapolis Center
02:47PM 39.9208 -85.8675 74° East 450 518 35,000  Level Indianapolis Center
02:48PM 39.9606 -85.6800 74° East 449 517 35,000  Level Indianapolis Center
02:49PM 39.9928 -85.5244 75° East 446 513 35,000  Level Indianapolis Center
02:50PM 40.0242 -85.3686 75° East 447 514 35,000  Level Indianapolis Center
02:51PM 40.0569 -85.2122 75° East 448 516 35,000  Level Indianapolis Center
02:52PM 40.0886 -85.0544 75° East 450 518 35,000  Level Indianapolis Center
02:53PM 40.1219 -84.8886 75° East 447 514 35,000  Level Indianapolis Center
02:54PM 40.1531 -84.7278 76° East 452 520 35,000  Level Indianapolis Center
02:55PM 40.1861 -84.5669 75° East 452 520 35,000  Level Indianapolis Center
02:56PM 40.2217 -84.3800 76° East 452 520 35,000  Level Indianapolis Center
02:58PM 40.2531 -84.2192 76° East 452 520 35,000  Level Indianapolis Center
02:59PM 40.2856 -84.0569 75° East 454 522 35,000  Level Indianapolis Center
03:00PM 40.3467 -83.9144 61° Northeast 442 509 35,000  Level Indianapolis Center
03:01PM 40.4111 -83.7758 59° Northeast 440 506 35,000  Level Indianapolis Center
03:02PM 40.4739 -83.6364 59° Northeast 439 505 35,000  Level Indianapolis Center
03:03PM 40.5369 -83.4981 59° Northeast 437 503 35,000  Level Indianapolis Center
03:04PM 40.6006 -83.3594 59° Northeast 437 503 35,000  Level Indianapolis Center
03:04PM 40.6419 -83.2703 59° Northeast 436 502 35,000  Level Cleveland Center
03:05PM 40.7056 -83.1331 59° Northeast 436 502 35,000  Level Cleveland Center
03:06PM 40.7583 -83.0092 61° Northeast 436 502 35,000  Level Cleveland Center
03:07PM 40.8217 -82.8714 59° Northeast 441 507 35,000  Level Cleveland Center
03:08PM 40.8850 -82.7225 61° Northeast 430 495 35,000  Level Cleveland Center
03:09PM 40.9394 -82.6033 59° Northeast 430 495 35,000  Level Cleveland Center
03:10PM 41.0000 -82.4650 60° Northeast 425 489 35,000  Level Cleveland Center
03:11PM 41.0608 -82.3236 60° Northeast 431 496 35,000  Level Cleveland Center
03:12PM 41.1233 -82.1819 60° Northeast 437 503 35,000  Level Cleveland Center
03:13PM 41.1900 -82.0261 60° Northeast 437 503 35,000  Level Cleveland Center
03:14PM 41.2522 -81.8867 59° Northeast 437 503 35,000  Level Cleveland Center
03:15PM 41.3097 -81.7525 60° Northeast 432 497 35,000  Level Cleveland Center
03:16PM 41.3675 -81.6206 60° Northeast 425 489 35,000  Level Cleveland Center
03:17PM 41.4247 -81.4831 61° Northeast 420 483 35,000  Level Cleveland Center
03:18PM 41.4758 -81.3619 61° Northeast 415 478 35,000  Level Cleveland Center
03:19PM 41.5331 -81.2239 61° Northeast 422 486 35,000  Level Cleveland Center
03:20PM 41.5942 -81.0803 60° Northeast 422 486 35,000  Level Cleveland Center
03:21PM 41.6550 -80.9389 60° Northeast 427 491 35,000  Level Cleveland Center
03:22PM 41.7139 -80.7944 61° Northeast 437 503 35,000  Level Cleveland Center
03:23PM 41.7306 -80.6389 82° East 422 486 35,000  Level Cleveland Center
03:24PM 41.7222 -80.4636 94° East 417 480 35,000  Level Cleveland Center
03:25PM 41.7094 -80.3050 96° East 423 487 35,000  Level Cleveland Center
03:26PM 41.6986 -80.1494 95° East 423 487 35,000  Level Cleveland Center
03:27PM 41.6853 -79.9936 96° East 423 487 35,000  Level Cleveland Center
03:28PM 41.6742 -79.8381 95° East 423 487 35,000  Level Cleveland Center
03:29PM 41.6625 -79.6825 96° East 423 487 35,000  Level Cleveland Center
03:30PM 41.6508 -79.5244 96° East 423 487 35,000  Level Cleveland Center
03:31PM 41.6347 -79.3692 98° East 428 493 35,000  Level Cleveland Center
03:32PM 41.6244 -79.2136 95° East 423 487 35,000  Level Cleveland Center
03:33PM 41.6103 -79.0642 97° East 423 487 35,000 -600 Level Cleveland Center
03:34PM 41.5978 -78.9144 96° East 412 474 33,900 -1,260 Descending Cleveland Center
03:35PM 41.5850 -78.7647 96° East 407 468 32,500 -1,440 Descending Cleveland Center
03:36PM 41.5722 -78.6208 97° East 402 463 31,100 -780 Descending Cleveland Center
03:37PM 41.5592 -78.4714 97° East 407 468 31,000 -60 Descending Cleveland Center
03:38PM 41.5436 -78.3192 98° East 407 468 31,000  Level Cleveland Center
03:39PM 41.5303 -78.1672 97° East 407 468 31,000  Level Cleveland Center
03:41PM 41.5133 -77.9717 97° East 422 486 31,000  Level New York Center
03:42PM 41.4914 -77.8197 101° East 414 476 31,000  Level New York Center
03:43PM 41.4708 -77.6736 101° East 414 476 31,000  Level New York Center
03:44PM 41.4500 -77.5247 101° East 414 476 31,000  Level New York Center
03:45PM 41.4272 -77.3783 102° East 414 476 31,000  Level New York Center
03:46PM 41.4042 -77.2294 102° East 414 476 31,000  Level New York Center
03:47PM 41.3850 -77.0811 100° East 408 470 31,000 -120 Level New York Center
03:48PM 41.3611 -76.9378 102° East 402 463 30,800 -1,200 Descending New York Center
03:49PM 41.3375 -76.7892 102° East 402 463 28,600 60 Descending New York Center
03:50PM 41.3097 -76.6789 109° East 397 457 31,000 -2,100 Climbing New York Center
03:51PM 41.2714 -76.5267 108° East 378 435 24,400 -4,380 Descending New York Center
03:52PM 41.2358 -76.3994 110° East 370 426 22,400 -2,040 Descending New York Center
03:53PM 41.2000 -76.2778 111° Southeast 364 419 20,400 -2,040 Descending New York Center
03:54PM 41.1722 -76.1569 107° East 352 405 18,400 -1,320 Descending New York Center
03:55PM 41.1400 -76.0386 110° East 347 399 17,900 -960 Descending New York Center
03:56PM 41.1133 -75.9347 109° East 337 388 16,600 -1,440 Descending New York Center
03:57PM 41.0808 -75.8194 110° East 337 388 15,000 -1,680 Descending New York Center
03:58PM 41.0444 -75.6928 111° Southeast 337 388 13,200 -1,020 Descending New York Center
03:59PM 41.0139 -75.5778 109° East 337 388 13,000 -120 Descending New York Center
04:00PM 40.9844 -75.4797 112° Southeast 332 382 13,000 -600 Level New York Center
04:01PM 40.9517 -75.3592 110° East 327 376 11,800 -1,200 Descending New York Center
04:02PM 40.9183 -75.2472 111° Southeast 327 376 10,700 -1,260 Descending New York Center
04:03PM 40.8928 -75.1547 110° East 306 352 9,400 -1,620 Descending New York Center
04:04PM 40.8714 -75.0575 106° East 287 330 7,500 -1,380 Descending New York Center
04:05PM 40.8647 -74.9472 95° East 277 319 6,700 -780 Descending New York Center
04:06PM 40.8600 -74.8481 94° East 277 319 6,000 -300 Descending New York Center
04:07PM 40.8547 -74.7600 95° East 272 313 6,100  Climbing New York Center
04:08PM 40.8478 -74.6500 95° East 272 313 6,000 -600 Descending New York Center
04:08PM 40.8167 -74.5833 122° Southeast 266 306 5,100 -600 Descending New York TRACON
04:09PM 40.7500 -74.5667 169° South 253 291 5,000  Descending New York TRACON
04:10PM 40.7000 -74.5833 194° South 211 243 5,100  Climbing New York TRACON
04:12PM 40.5833 -74.5833 180° South 212 244 5,100 -300 Level New York TRACON
04:13PM 40.5333 -74.5667 166° South 210 242 4,300 -540 Descending New York TRACON
04:14PM 40.4833 -74.5333 153° Southeast 205 236 4,100 -360 Descending New York TRACON
04:15PM 40.4333 -74.4667 135° Southeast 232 267 3,600 -360 Descending New York TRACON
04:17PM 40.4500 -74.3333 81° East 199 229 3,100 -180 Descending New York TRACON
04:18PM 40.5000 -74.2833 37° Northeast 205 236 3,100 -60 Level New York TRACON
04:19PM 40.5500 -74.2667 14° North 203 234 3,000 -120 Descending New York TRACON